createdAt,value
2023-05-10T00:01:24.322Z,161.95
2023-05-10T00:03:51.546Z,150.43
2023-05-10T00:06:18.808Z,153.65
2023-05-10T00:08:46.673Z,173.60
2023-05-10T00:11:13.808Z,165.18
2023-05-10T00:13:41.529Z,162.82
2023-05-10T00:16:08.821Z,157.23
2023-05-10T00:18:36.071Z,158.70
2023-05-10T00:21:03.386Z,154.25
2023-05-10T00:23:30.535Z,159.40
2023-05-10T00:25:58.008Z,165.20
2023-05-10T00:28:25.208Z,163.95
2023-05-10T00:30:52.344Z,159.98
2023-05-10T00:33:19.515Z,145.98
2023-05-10T00:35:46.671Z,150.93
2023-05-10T00:38:13.940Z,153.60
2023-05-10T00:43:16.071Z,154.85
2023-05-10T00:45:43.330Z,171.45
2023-05-10T00:48:10.593Z,156.20
2023-05-10T00:50:38.299Z,63.25
2023-05-10T00:53:05.551Z,134.13
2023-05-10T00:55:32.788Z,152.80
2023-05-10T00:58:00.028Z,160.23
2023-05-10T01:00:27.339Z,143.00
2023-05-10T01:02:55.520Z,138.00
2023-05-10T01:05:23.659Z,147.82
2023-05-10T01:07:52.006Z,144.27
2023-05-10T01:10:19.477Z,136.05
2023-05-10T01:12:48.656Z,139.98
2023-05-10T01:15:18.154Z,162.65
2023-05-10T01:17:48.686Z,147.68
2023-05-10T01:20:16.878Z,155.70
2023-05-10T01:26:36.072Z,137.38
2023-05-10T01:32:42.778Z,119.97
2023-05-10T01:35:41.084Z,48.45
2023-05-10T01:38:38.325Z,130.20
2023-05-10T01:41:37.724Z,150.50
2023-05-10T01:44:38.346Z,144.25
2023-05-10T01:47:27.323Z,149.77
2023-05-10T01:49:56.949Z,144.73
2023-05-10T01:52:34.112Z,129.65
2023-05-10T01:55:07.590Z,119.43
2023-05-10T01:57:40.539Z,125.20
2023-05-10T02:00:10.395Z,110.45
2023-05-10T02:02:49.736Z,118.50
2023-05-10T02:05:18.863Z,138.57
2023-05-10T02:07:46.692Z,114.93
2023-05-10T02:10:15.658Z,104.60
2023-05-10T02:12:48.730Z,119.35
2023-05-10T02:15:24.128Z,137.90
2023-05-10T02:17:53.949Z,135.15
2023-05-10T02:20:23.532Z,108.97
2023-05-10T02:22:57.314Z,114.05
2023-05-10T02:25:26.577Z,119.78
2023-05-10T02:27:57.165Z,119.70
2023-05-10T02:30:24.944Z,113.15
2023-05-10T02:32:53.638Z,125.55
2023-05-10T02:35:21.849Z,130.35
2023-05-10T02:37:49.732Z,139.40
2023-05-10T02:40:18.802Z,133.75
2023-05-10T02:42:48.736Z,128.57
2023-05-10T02:45:22.949Z,129.48
2023-05-10T02:47:50.705Z,135.43
2023-05-10T02:50:18.262Z,146.05
2023-05-10T02:52:54.873Z,133.80
2023-05-10T02:55:27.977Z,150.05
2023-05-10T02:58:02.407Z,144.23
2023-05-10T03:00:30.239Z,147.50
2023-05-10T03:02:57.615Z,151.00
2023-05-10T03:07:54.625Z,138.32
2023-05-10T03:10:28.839Z,132.00
2023-05-10T03:13:12.108Z,153.10
2023-05-10T03:15:54.830Z,135.30
2023-05-10T03:18:57.901Z,145.57
2023-05-10T03:21:29.793Z,150.63
2023-05-10T03:24:12.834Z,139.73
2023-05-10T03:26:41.812Z,133.05
2023-05-10T03:29:15.562Z,139.75
2023-05-10T03:31:43.267Z,144.88
2023-05-10T03:34:10.621Z,145.75
2023-05-10T03:36:37.772Z,138.32
2023-05-10T03:39:04.885Z,131.00
2023-05-10T03:41:32.076Z,130.77
2023-05-10T03:43:59.290Z,127.72
2023-05-10T03:46:26.569Z,130.63
2023-05-10T03:48:53.968Z,123.30
2023-05-10T03:51:21.389Z,133.65
2023-05-10T03:53:49.372Z,130.43
2023-05-10T03:56:16.636Z,123.68
2023-05-10T03:58:43.778Z,121.15
2023-05-10T04:01:11.433Z,126.32
2023-05-10T04:03:39.175Z,117.85
2023-05-10T04:06:07.954Z,123.07
2023-05-10T04:08:35.292Z,123.38
2023-05-10T04:11:13.815Z,113.55
2023-05-10T04:13:41.104Z,129.90
2023-05-10T04:16:08.447Z,127.18
2023-05-10T04:18:36.146Z,121.20
2023-05-10T04:21:03.584Z,147.82
2023-05-10T04:23:30.740Z,140.05
2023-05-10T04:26:02.831Z,133.23
2023-05-10T04:28:30.007Z,129.93
2023-05-10T04:31:10.014Z,134.27
2023-05-10T04:33:37.970Z,171.23
2023-05-10T04:36:06.090Z,151.05
2023-05-10T04:38:33.231Z,142.75
2023-05-10T04:41:09.167Z,148.98
2023-05-10T04:43:37.694Z,143.73
2023-05-10T04:46:06.043Z,159.52
2023-05-10T04:51:00.608Z,142.48
2023-05-10T04:53:28.323Z,151.85
2023-05-10T04:55:55.654Z,145.75
2023-05-10T04:58:22.845Z,137.05
2023-05-10T05:00:50.070Z,188.50
2023-05-10T05:03:17.364Z,153.15
2023-05-10T05:05:45.804Z,141.10
2023-05-10T05:10:40.237Z,136.43
2023-05-10T05:13:07.445Z,148.70
2023-05-10T05:15:34.933Z,140.18
2023-05-10T05:18:02.125Z,148.63
2023-05-10T05:20:29.417Z,147.60
2023-05-10T05:22:56.572Z,142.27
2023-05-10T05:25:23.950Z,146.55
2023-05-10T05:27:51.071Z,166.23
2023-05-10T05:30:18.533Z,143.40
2023-05-10T05:32:45.981Z,154.93
2023-05-10T05:35:13.343Z,148.85
2023-05-10T05:37:40.981Z,143.20
2023-05-10T05:40:09.247Z,159.20
2023-05-10T05:42:36.392Z,171.57
2023-05-10T05:45:03.718Z,155.30
2023-05-10T05:47:31.717Z,163.00
2023-05-10T05:49:59.073Z,171.00
2023-05-10T05:52:26.234Z,156.48
2023-05-10T05:54:53.405Z,153.63
2023-05-10T05:57:20.512Z,160.70
2023-05-10T05:59:47.708Z,173.27
2023-05-10T06:02:14.957Z,165.95
2023-05-10T06:04:44.913Z,171.32
2023-05-10T06:07:14.930Z,166.13
2023-05-10T06:09:42.106Z,151.23
2023-05-10T06:12:09.233Z,157.32
2023-05-10T06:14:36.377Z,50.97
2023-05-10T06:17:05.979Z,47.90
2023-05-10T06:19:33.257Z,47.60
2023-05-10T06:22:00.433Z,57.63
2023-05-10T06:24:28.117Z,48.08
2023-05-10T06:26:55.242Z,60.90
2023-05-10T06:29:22.396Z,53.72
2023-05-10T06:31:49.553Z,87.30
2023-05-10T06:34:16.706Z,55.13
2023-05-10T06:36:44.241Z,50.40
2023-05-10T06:39:12.962Z,58.17
2023-05-10T06:41:40.088Z,62.88
2023-05-10T06:44:07.304Z,53.65
2023-05-10T06:46:34.485Z,51.78
2023-05-10T06:49:01.778Z,70.65
2023-05-10T06:51:29.031Z,65.32
2023-05-10T06:53:56.273Z,65.75
2023-05-10T06:56:23.686Z,72.55
2023-05-10T06:58:51.313Z,63.17
2023-05-10T07:01:18.758Z,64.85
2023-05-10T07:03:46.365Z,62.83
2023-05-10T07:06:29.361Z,61.95
2023-05-10T07:09:01.395Z,64.60
2023-05-10T07:11:29.987Z,63.47
2023-05-10T07:13:57.148Z,60.13
2023-05-10T07:16:24.879Z,69.30
2023-05-10T07:18:52.012Z,70.10
2023-05-10T07:21:19.227Z,68.82
2023-05-10T07:23:46.423Z,54.13
2023-05-10T07:26:13.606Z,64.57
2023-05-10T07:28:40.880Z,48.80
2023-05-10T07:31:08.047Z,60.58
2023-05-10T07:33:35.238Z,54.58
2023-05-10T07:36:02.653Z,51.33
2023-05-10T07:38:29.914Z,64.68
2023-05-10T07:40:57.153Z,48.80
2023-05-10T07:43:24.308Z,46.50
2023-05-10T07:45:52.736Z,52.17
2023-05-10T07:48:21.164Z,49.15
2023-05-10T07:50:48.343Z,64.38
2023-05-10T07:53:15.516Z,65.57
2023-05-10T07:55:42.714Z,54.13
2023-05-10T07:58:09.906Z,52.03
2023-05-10T08:00:40.185Z,47.80
2023-05-10T08:03:07.441Z,49.35
2023-05-10T08:05:35.791Z,50.65
2023-05-10T08:10:30.304Z,47.33
2023-05-10T08:12:59.311Z,46.72
2023-05-10T08:15:26.534Z,47.15
2023-05-10T08:17:53.870Z,54.67
2023-05-10T08:20:21.574Z,39.80
2023-05-10T08:22:51.175Z,41.15
2023-05-10T08:25:19.274Z,56.72
2023-05-10T08:27:46.652Z,46.90
2023-05-10T08:30:14.216Z,48.22
2023-05-10T08:32:41.370Z,44.30
2023-05-10T08:35:08.704Z,50.78
2023-05-10T08:37:35.987Z,46.33
2023-05-10T08:40:04.168Z,44.63
2023-05-10T08:42:36.427Z,46.13
2023-05-10T08:45:05.684Z,49.83
2023-05-10T08:47:33.334Z,51.22
2023-05-10T08:50:03.921Z,49.90
2023-05-10T08:52:33.956Z,51.30
2023-05-10T08:55:01.255Z,51.63
2023-05-10T08:57:28.726Z,52.80
2023-05-10T08:59:56.010Z,67.88
2023-05-10T09:02:25.164Z,45.85
2023-05-10T09:04:52.524Z,46.38
2023-05-10T09:07:21.065Z,71.85
2023-05-10T09:09:49.475Z,44.47
2023-05-10T09:12:17.341Z,52.60
2023-05-10T09:14:46.564Z,54.83
2023-05-10T09:17:14.371Z,39.83
2023-05-10T09:19:41.563Z,46.08
2023-05-10T09:22:09.277Z,38.78
2023-05-10T09:24:37.810Z,41.83
2023-05-10T09:27:04.944Z,37.50
2023-05-10T09:29:44.361Z,39.50
2023-05-10T09:32:11.703Z,35.97
2023-05-10T09:34:42.178Z,38.55
2023-05-10T09:37:09.415Z,50.45
2023-05-10T09:39:38.839Z,46.13
2023-05-10T09:42:10.841Z,37.58
2023-05-10T09:44:39.056Z,46.80
2023-05-10T09:47:06.419Z,30.90
2023-05-10T09:49:34.168Z,30.52
2023-05-10T09:52:07.354Z,32.83
2023-05-10T09:54:35.638Z,37.40
2023-05-10T09:57:03.262Z,30.65
2023-05-10T09:59:31.158Z,29.60
2023-05-10T10:02:00.815Z,26.17
2023-05-10T10:04:28.444Z,47.95
2023-05-10T10:07:06.188Z,29.63
2023-05-10T10:09:35.102Z,26.65
2023-05-10T10:12:03.760Z,40.08
2023-05-10T10:14:31.376Z,32.53
2023-05-10T10:17:08.088Z,32.05
2023-05-10T10:19:37.283Z,34.88
2023-05-10T10:22:05.142Z,23.48
2023-05-10T10:24:32.794Z,29.92
2023-05-10T10:27:34.570Z,22.95
2023-05-10T10:30:43.500Z,46.97
2023-05-10T10:33:51.444Z,26.70
2023-05-10T10:36:18.732Z,23.90
2023-05-10T10:38:48.796Z,21.25
2023-05-10T10:41:36.338Z,18.65
2023-05-10T10:44:34.617Z,22.92
2023-05-10T10:47:23.844Z,30.85
2023-05-10T10:49:57.207Z,23.60
2023-05-10T10:52:34.115Z,30.95
2023-05-10T10:55:19.937Z,23.15
2023-05-10T10:57:49.917Z,55.20
2023-05-10T11:00:33.387Z,23.30
2023-05-10T11:03:09.636Z,45.25
2023-05-10T11:05:44.170Z,27.55
2023-05-10T11:11:03.146Z,32.30
2023-05-10T11:13:50.076Z,28.40
2023-05-10T11:16:25.252Z,30.17
2023-05-10T11:19:09.256Z,46.75
2023-05-10T11:22:14.520Z,21.55
2023-05-10T11:24:57.596Z,29.67
2023-05-10T11:27:24.840Z,44.35
2023-05-10T11:29:55.218Z,26.80
2023-05-10T11:32:23.052Z,25.88
2023-05-10T11:34:50.415Z,25.45
2023-05-10T11:37:19.814Z,85.38
2023-05-10T11:39:48.613Z,22.73
2023-05-10T11:42:15.978Z,42.97
2023-05-10T11:44:45.302Z,28.70
2023-05-10T11:47:13.501Z,22.77
2023-05-10T11:49:44.931Z,39.08
2023-05-10T11:52:12.413Z,65.20
2023-05-10T11:54:56.306Z,34.50
2023-05-10T11:57:29.464Z,26.27
2023-05-10T11:59:58.664Z,23.38
2023-05-10T12:02:26.340Z,28.63
2023-05-10T12:04:53.871Z,39.38
2023-05-10T12:07:21.093Z,24.77
2023-05-10T12:10:17.515Z,26.48
2023-05-10T12:12:49.084Z,47.42
2023-05-10T12:15:23.354Z,24.88
2023-05-10T12:17:52.046Z,22.70
2023-05-10T12:20:23.296Z,20.10
2023-05-10T12:23:00.718Z,22.58
2023-05-10T12:25:35.799Z,24.92
2023-05-10T12:28:10.539Z,57.55
2023-05-10T12:30:39.717Z,78.07
2023-05-10T12:33:17.591Z,40.75
2023-05-10T12:35:48.727Z,26.38
2023-05-10T12:38:40.001Z,27.58
2023-05-10T12:41:19.187Z,26.33
2023-05-10T12:43:47.346Z,24.77
2023-05-10T12:46:18.486Z,27.05
2023-05-10T12:49:06.866Z,36.28
2023-05-10T12:51:36.004Z,27.30
2023-05-10T12:54:04.905Z,23.92
2023-05-10T12:56:32.119Z,28.15
2023-05-10T12:58:59.277Z,30.70
2023-05-10T13:01:26.518Z,22.48
2023-05-10T13:03:53.693Z,33.72
2023-05-10T13:06:20.863Z,25.30
2023-05-10T13:08:48.020Z,26.10
2023-05-10T13:11:17.862Z,22.75
2023-05-10T13:13:47.987Z,24.63
2023-05-10T13:16:15.312Z,27.90
2023-05-10T13:18:42.680Z,21.88
2023-05-10T13:21:09.864Z,36.97
2023-05-10T13:23:37.035Z,42.10
2023-05-10T13:26:04.227Z,23.38
2023-05-10T13:28:31.726Z,24.90
2023-05-10T13:31:00.910Z,32.63
2023-05-10T13:33:28.128Z,25.27
2023-05-10T13:35:55.861Z,23.63
2023-05-10T13:38:23.358Z,35.50
2023-05-10T13:40:53.606Z,22.88
2023-05-10T13:43:21.159Z,24.75
2023-05-10T13:45:48.480Z,27.58
2023-05-10T13:48:16.014Z,23.55
2023-05-10T13:50:44.002Z,25.75
2023-05-10T13:53:11.237Z,25.95
2023-05-10T13:55:38.466Z,26.38
2023-05-10T13:58:05.798Z,24.95
2023-05-10T14:00:33.059Z,22.38
2023-05-10T14:03:00.489Z,22.80
2023-05-10T14:05:28.205Z,24.88
2023-05-10T14:07:55.776Z,27.55
2023-05-10T14:10:22.990Z,27.73
2023-05-10T14:12:51.537Z,22.98
2023-05-10T14:15:19.161Z,22.10
2023-05-10T14:17:46.654Z,34.42
2023-05-10T14:20:13.821Z,23.08
2023-05-10T14:22:41.468Z,20.00
2023-05-10T14:25:09.599Z,20.90
2023-05-10T14:27:36.734Z,20.63
2023-05-10T14:30:04.454Z,19.45
2023-05-10T14:32:32.958Z,25.48
2023-05-10T14:35:00.637Z,35.58
2023-05-10T14:37:27.838Z,25.52
2023-05-10T14:39:55.372Z,23.17
2023-05-10T14:42:22.713Z,25.40
2023-05-10T14:44:49.968Z,26.75
2023-05-10T14:47:17.280Z,26.95
2023-05-10T14:49:44.375Z,28.63
2023-05-10T14:52:13.107Z,37.03
2023-05-10T14:54:41.222Z,25.58
2023-05-10T14:57:08.698Z,23.45
2023-05-10T14:59:35.919Z,23.13
2023-05-10T15:02:05.155Z,19.65
2023-05-10T15:04:33.151Z,22.92
2023-05-10T15:07:01.428Z,28.10
2023-05-10T15:09:28.856Z,22.13
2023-05-10T15:11:56.700Z,26.52
2023-05-10T15:14:24.455Z,22.65
2023-05-10T15:16:52.887Z,37.25
2023-05-10T15:19:21.532Z,25.77
2023-05-10T15:21:48.763Z,24.80
2023-05-10T15:24:16.006Z,26.80
2023-05-10T15:26:43.151Z,23.90
2023-05-10T15:29:10.810Z,27.48
2023-05-10T15:31:38.144Z,27.10
2023-05-10T15:34:05.609Z,24.38
2023-05-10T15:36:33.515Z,34.25
2023-05-10T15:39:02.035Z,22.90
2023-05-10T15:41:29.729Z,30.30
2023-05-10T15:43:57.124Z,26.85
2023-05-10T15:46:25.304Z,23.95
2023-05-10T15:48:52.937Z,30.35
2023-05-10T15:51:20.191Z,20.80
2023-05-10T15:54:05.271Z,24.17
2023-05-10T15:59:01.765Z,27.30
2023-05-10T16:01:29.318Z,21.38
2023-05-10T16:03:56.937Z,21.25
2023-05-10T16:06:24.103Z,23.30
2023-05-10T16:08:52.874Z,22.60
2023-05-10T16:11:21.558Z,20.75
2023-05-10T16:13:48.852Z,18.95
2023-05-10T16:16:16.112Z,18.30
2023-05-10T16:18:43.387Z,22.38
2023-05-10T16:21:10.831Z,22.70
2023-05-10T16:23:38.035Z,22.45
2023-05-10T16:26:05.187Z,17.75
2023-05-10T16:28:32.439Z,17.27
2023-05-10T16:30:59.841Z,23.23
2023-05-10T16:33:27.142Z,20.50
2023-05-10T16:35:54.280Z,23.98
2023-05-10T16:38:21.843Z,23.38
2023-05-10T16:40:49.149Z,21.83
2023-05-10T16:43:16.509Z,30.95
2023-05-10T16:45:43.798Z,21.25
2023-05-10T16:48:10.972Z,20.73
2023-05-10T16:50:38.239Z,21.45
2023-05-10T16:53:05.446Z,21.88
2023-05-10T16:55:32.570Z,19.45
2023-05-10T16:58:00.870Z,16.17
2023-05-10T17:02:55.484Z,19.95
2023-05-10T17:05:23.201Z,20.13
2023-05-10T17:07:50.456Z,22.38
2023-05-10T17:12:46.289Z,14.75
2023-05-10T17:15:13.578Z,14.45
2023-05-10T17:17:40.767Z,19.90
2023-05-10T17:20:09.106Z,20.70
2023-05-10T17:25:04.171Z,15.45
2023-05-10T17:27:31.514Z,20.63
2023-05-10T17:29:59.428Z,15.95
2023-05-10T17:32:26.859Z,17.23
2023-05-10T17:34:54.005Z,14.95
2023-05-10T17:37:21.239Z,17.33
2023-05-10T17:39:48.436Z,17.58
2023-05-10T17:42:18.878Z,16.58
2023-05-10T17:44:46.266Z,14.73
2023-05-10T17:47:13.510Z,15.43
2023-05-10T17:49:40.857Z,19.55
2023-05-10T17:52:08.128Z,16.00
2023-05-10T17:54:35.561Z,14.48
2023-05-10T17:57:03.705Z,14.13
2023-05-10T17:59:30.977Z,15.57
2023-05-10T18:01:58.189Z,15.60
2023-05-10T18:04:25.978Z,14.45
2023-05-10T18:07:00.938Z,15.40
2023-05-10T18:09:29.169Z,17.20
2023-05-10T18:11:56.404Z,18.08
2023-05-10T18:14:38.991Z,13.90
2023-05-10T18:17:07.831Z,16.30
2023-05-10T18:19:35.269Z,15.50
2023-05-10T18:22:02.722Z,14.85
2023-05-10T18:24:38.944Z,26.13
2023-05-10T18:27:09.499Z,21.73
2023-05-10T18:32:04.594Z,17.38
2023-05-10T18:34:31.840Z,19.70
2023-05-10T18:36:59.745Z,26.05
2023-05-10T18:39:26.998Z,24.13
2023-05-10T18:41:54.289Z,48.92
2023-05-10T18:44:23.184Z,24.95
2023-05-10T18:46:54.093Z,25.45
2023-05-10T18:49:21.463Z,30.17
2023-05-10T18:51:48.588Z,33.60
2023-05-10T18:54:15.890Z,26.50
2023-05-10T18:56:45.167Z,27.02
2023-05-10T18:59:13.132Z,19.67
2023-05-10T19:01:42.014Z,24.77
2023-05-10T19:04:09.318Z,21.23
2023-05-10T19:06:36.829Z,16.88
2023-05-10T19:09:04.404Z,16.05
2023-05-10T19:11:33.998Z,15.00
2023-05-10T19:14:02.355Z,19.75
2023-05-10T19:18:58.040Z,21.92
2023-05-10T19:21:25.778Z,26.15
2023-05-10T19:23:53.592Z,23.35
2023-05-10T19:26:21.047Z,27.25
2023-05-10T19:28:50.879Z,29.08
2023-05-10T19:31:18.562Z,26.20
2023-05-10T19:33:46.839Z,31.15
2023-05-10T19:36:14.264Z,24.40
2023-05-10T19:38:41.558Z,23.50
2023-05-10T19:41:08.815Z,22.73
2023-05-10T19:43:39.761Z,24.92
2023-05-10T19:46:09.712Z,23.88
2023-05-10T19:48:37.076Z,23.30
2023-05-10T19:51:08.532Z,25.20
2023-05-10T19:53:37.660Z,25.40
2023-05-10T19:56:07.086Z,27.90
2023-05-10T19:58:34.506Z,25.73
2023-05-10T20:01:02.252Z,23.77
2023-05-10T20:03:29.987Z,58.20
2023-05-10T20:05:57.244Z,91.63
2023-05-10T20:08:25.395Z,58.08
2023-05-10T20:10:53.031Z,52.63
2023-05-10T20:13:22.573Z,45.75
2023-05-10T20:15:49.706Z,40.80
2023-05-10T20:18:22.574Z,39.55
2023-05-10T20:20:59.112Z,27.13
2023-05-10T20:23:26.751Z,21.42
2023-05-10T20:25:54.622Z,24.23
2023-05-10T20:28:25.201Z,22.25
2023-05-10T20:31:07.526Z,19.95
2023-05-10T20:33:34.782Z,19.10
2023-05-10T20:36:02.025Z,24.02
2023-05-10T20:38:29.195Z,38.40
2023-05-10T20:40:56.410Z,32.03
2023-05-10T20:43:23.780Z,31.85
2023-05-10T20:45:51.091Z,28.30
2023-05-10T20:48:19.643Z,35.80
2023-05-10T20:50:49.215Z,24.13
2023-05-10T20:53:22.952Z,30.92
2023-05-10T20:55:51.698Z,25.92
2023-05-10T20:58:20.146Z,29.10
2023-05-10T21:00:47.765Z,28.70
2023-05-10T21:03:16.854Z,46.75
2023-05-10T21:05:44.168Z,35.30
2023-05-10T21:08:16.047Z,56.97
2023-05-10T21:10:50.264Z,39.00
2023-05-10T21:20:48.020Z,34.28
2023-05-10T21:23:17.482Z,23.75
2023-05-10T21:25:44.673Z,21.38
2023-05-10T21:28:21.808Z,28.63
2023-05-10T21:30:50.203Z,23.05
2023-05-10T21:35:46.935Z,20.42
2023-05-10T21:38:14.271Z,25.55
2023-05-10T21:40:41.853Z,26.05
2023-05-10T21:43:09.617Z,25.17
2023-05-10T21:45:37.142Z,21.83
2023-05-10T21:48:04.546Z,21.80
2023-05-10T21:50:31.824Z,24.98
2023-05-10T21:53:00.346Z,25.60
2023-05-10T21:55:27.886Z,24.75
2023-05-10T21:57:55.052Z,27.52
2023-05-10T22:00:22.575Z,25.85
2023-05-10T22:02:50.024Z,22.92
2023-05-10T22:05:21.987Z,26.90
2023-05-10T22:07:49.175Z,23.88
2023-05-10T22:10:16.963Z,24.88
2023-05-10T22:12:44.293Z,24.55
2023-05-10T22:15:11.910Z,23.08
2023-05-10T22:17:41.642Z,23.50
2023-05-10T22:20:09.531Z,22.42
2023-05-10T22:22:36.829Z,24.38
2023-05-10T22:25:08.559Z,27.80
2023-05-10T22:27:36.147Z,25.60
2023-05-10T22:30:04.923Z,24.25
2023-05-10T22:32:34.516Z,22.63
2023-05-10T22:35:03.337Z,25.23
2023-05-10T22:37:30.738Z,23.00
2023-05-10T22:39:57.916Z,26.85
2023-05-10T22:42:25.057Z,24.35
2023-05-10T22:44:52.270Z,24.92
2023-05-10T22:47:19.412Z,26.50
2023-05-10T22:49:46.992Z,26.48
2023-05-10T22:52:14.168Z,41.50
2023-05-10T22:54:41.472Z,21.55
2023-05-10T22:57:08.729Z,23.70
2023-05-10T22:59:35.997Z,23.85
2023-05-10T23:02:03.565Z,30.30
2023-05-10T23:04:31.264Z,24.80
2023-05-10T23:06:58.825Z,18.92
2023-05-10T23:09:26.008Z,22.23
2023-05-10T23:11:53.307Z,23.20
2023-05-10T23:14:20.445Z,22.98
2023-05-10T23:16:47.608Z,24.67
2023-05-10T23:19:14.789Z,22.98
2023-05-10T23:21:42.049Z,34.33
2023-05-10T23:24:09.364Z,22.27
2023-05-10T23:26:36.584Z,24.40
2023-05-10T23:29:03.789Z,25.02
2023-05-10T23:31:31.252Z,22.10
2023-05-10T23:33:58.412Z,25.33
2023-05-10T23:36:25.744Z,27.55
2023-05-10T23:38:52.914Z,31.33
2023-05-10T23:41:20.077Z,25.38
2023-05-10T23:43:47.217Z,28.95
2023-05-10T23:46:14.405Z,28.88
2023-05-10T23:48:41.648Z,26.73
2023-05-10T23:51:08.877Z,31.08
2023-05-10T23:53:36.479Z,28.73
2023-05-10T23:56:04.904Z,27.77
2023-05-10T23:58:32.060Z,31.02
